createdAt,value
2017-09-18T00:00:08.602Z,9.10
2017-09-18T00:02:37.020Z,9.10
2017-09-18T00:05:06.168Z,9.10
2017-09-18T00:07:34.812Z,9.10
2017-09-18T00:10:03.902Z,9.10
2017-09-18T00:12:33.188Z,9.00
2017-09-18T00:15:02.935Z,8.90
2017-09-18T00:17:33.014Z,8.80
2017-09-18T00:20:01.496Z,8.80
2017-09-18T00:22:29.942Z,8.80
2017-09-18T00:24:58.345Z,8.80
2017-09-18T00:27:27.559Z,8.80
2017-09-18T00:29:55.943Z,8.70
2017-09-18T00:32:24.423Z,8.80
2017-09-18T00:34:52.805Z,8.70
2017-09-18T00:37:21.191Z,8.70
2017-09-18T00:39:49.601Z,8.70
2017-09-18T00:42:17.992Z,8.70
2017-09-18T00:44:46.373Z,8.80
2017-09-18T00:47:14.853Z,8.70
2017-09-18T00:49:42.893Z,8.70
2017-09-18T00:52:11.018Z,8.80
2017-09-18T00:54:41.828Z,8.80
2017-09-18T00:57:11.777Z,8.80
2017-09-18T00:59:42.001Z,8.80
2017-09-18T01:02:13.634Z,8.90
2017-09-18T01:04:42.575Z,8.90
2017-09-18T01:07:11.648Z,8.90
2017-09-18T01:09:41.979Z,8.90
2017-09-18T01:12:10.648Z,8.90
2017-09-18T01:14:39.123Z,9.00
2017-09-18T01:17:07.509Z,8.90
2017-09-18T01:19:35.209Z,8.90
2017-09-18T01:22:03.639Z,8.90
2017-09-18T01:24:32.125Z,8.90
2017-09-18T01:27:00.517Z,8.90
2017-09-18T01:29:28.928Z,8.90
2017-09-18T01:31:57.136Z,8.80
2017-09-18T01:34:26.294Z,8.80
2017-09-18T01:36:54.688Z,8.70
2017-09-18T01:39:23.076Z,8.80
2017-09-18T01:41:52.232Z,8.70
2017-09-18T01:44:20.779Z,8.70
2017-09-18T01:46:50.264Z,8.70
2017-09-18T01:49:19.806Z,8.70
2017-09-18T01:51:49.582Z,8.70
2017-09-18T01:54:19.747Z,8.70
2017-09-18T01:56:49.439Z,8.70
2017-09-18T01:59:19.513Z,8.70
2017-09-18T02:01:47.901Z,8.70
2017-09-18T02:04:17.072Z,8.60
2017-09-18T02:06:45.460Z,8.60
2017-09-18T02:09:14.717Z,8.60
2017-09-18T02:11:43.117Z,8.60
2017-09-18T02:14:11.544Z,8.60
2017-09-18T02:16:39.948Z,8.70
2017-09-18T02:19:08.000Z,8.60
2017-09-18T02:21:36.393Z,8.70
2017-09-18T02:24:04.780Z,8.70
2017-09-18T02:26:33.221Z,8.60
2017-09-18T02:29:01.826Z,8.60
2017-09-18T02:31:30.222Z,8.60
2017-09-18T02:33:58.787Z,8.50
2017-09-18T02:36:27.282Z,8.50
2017-09-18T02:38:57.239Z,8.50
2017-09-18T02:41:27.162Z,8.40
2017-09-18T02:43:57.284Z,8.40
2017-09-18T02:46:27.538Z,8.40
2017-09-18T02:48:56.224Z,8.30
2017-09-18T02:51:24.641Z,8.30
2017-09-18T02:53:53.042Z,8.30
2017-09-18T02:56:22.211Z,8.30
2017-09-18T02:58:50.654Z,8.30
2017-09-18T03:01:19.308Z,8.30
2017-09-18T03:03:48.474Z,8.30
2017-09-18T03:06:16.923Z,8.30
2017-09-18T03:08:45.311Z,8.30
2017-09-18T03:11:13.718Z,8.30
2017-09-18T03:13:42.111Z,8.30
2017-09-18T03:16:11.337Z,8.30
2017-09-18T03:18:39.737Z,8.30
2017-09-18T03:21:08.128Z,8.30
2017-09-18T03:23:36.663Z,8.30
2017-09-18T03:26:06.625Z,8.40
2017-09-18T03:28:35.030Z,8.40
2017-09-18T03:31:03.685Z,8.40
2017-09-18T03:33:32.341Z,8.40
2017-09-18T03:36:00.799Z,8.40
2017-09-18T03:38:29.764Z,8.40
2017-09-18T03:40:58.209Z,8.40
2017-09-18T03:43:26.401Z,8.40
2017-09-18T03:45:54.605Z,8.50
2017-09-18T03:48:23.788Z,8.60
2017-09-18T03:50:52.177Z,8.50
2017-09-18T03:53:21.446Z,8.60
2017-09-18T03:55:49.657Z,8.60
2017-09-18T03:58:18.824Z,8.60
2017-09-18T04:00:47.028Z,8.60
2017-09-18T04:03:16.211Z,8.60
2017-09-18T04:05:45.362Z,8.60
2017-09-18T04:08:13.741Z,8.60
2017-09-18T04:10:42.152Z,8.60
2017-09-18T04:13:10.556Z,8.60
2017-09-18T04:15:39.716Z,8.60
2017-09-18T04:18:08.123Z,8.50
2017-09-18T04:20:37.335Z,8.60
2017-09-18T04:23:05.740Z,8.60
2017-09-18T04:25:34.158Z,8.60
2017-09-18T04:28:02.551Z,8.60
2017-09-18T04:30:31.712Z,8.70
2017-09-18T04:33:00.116Z,8.70
2017-09-18T04:35:28.507Z,8.70
2017-09-18T04:37:57.725Z,8.70
2017-09-18T04:40:26.198Z,8.70
2017-09-18T04:42:54.586Z,8.70
2017-09-18T04:45:23.128Z,8.70
2017-09-18T04:47:51.527Z,8.70
2017-09-18T04:50:19.995Z,8.70
2017-09-18T04:52:49.503Z,8.60
2017-09-18T04:55:19.135Z,8.60
2017-09-18T04:57:48.707Z,8.60
2017-09-18T05:00:19.378Z,8.70
2017-09-18T05:02:48.956Z,8.70
2017-09-18T05:05:19.014Z,8.70
2017-09-18T05:07:48.233Z,8.70
2017-09-18T05:10:17.071Z,8.70
2017-09-18T05:12:45.456Z,8.70
2017-09-18T05:15:13.867Z,8.80
2017-09-18T05:17:42.247Z,8.80
2017-09-18T05:20:10.627Z,8.80
2017-09-18T05:22:39.032Z,8.80
2017-09-18T05:25:07.418Z,8.80
2017-09-18T05:27:36.571Z,8.90
2017-09-18T05:30:04.987Z,8.90
2017-09-18T05:32:33.372Z,8.90
2017-09-18T05:35:02.345Z,9.00
2017-09-18T05:37:30.760Z,8.90
2017-09-18T05:39:59.149Z,9.00
2017-09-18T05:42:27.709Z,9.10
2017-09-18T05:44:56.967Z,9.30
2017-09-18T05:47:27.129Z,9.20
2017-09-18T05:49:57.169Z,9.40
2017-09-18T05:52:25.891Z,9.40
2017-09-18T05:54:54.300Z,9.50
2017-09-18T05:57:23.467Z,9.50
2017-09-18T05:59:51.881Z,9.50
2017-09-18T06:02:21.039Z,9.50
2017-09-18T06:04:49.436Z,9.50
2017-09-18T06:07:17.660Z,9.60
2017-09-18T06:09:46.124Z,9.70
2017-09-18T06:12:14.515Z,9.70
2017-09-18T06:14:42.916Z,9.90
2017-09-18T06:17:11.313Z,10.20
2017-09-18T06:19:39.708Z,10.10
2017-09-18T06:22:08.148Z,10.00
2017-09-18T06:24:36.588Z,10.00
2017-09-18T06:27:04.984Z,10.10
2017-09-18T06:29:34.234Z,10.10
2017-09-18T06:32:02.632Z,10.50
2017-09-18T06:34:31.786Z,12.10
2017-09-18T06:37:00.198Z,12.10
2017-09-18T06:39:29.355Z,12.10
2017-09-18T06:41:57.799Z,12.00
2017-09-18T06:44:26.214Z,11.70
2017-09-18T06:46:54.611Z,11.50
2017-09-18T06:49:23.011Z,11.50
2017-09-18T06:51:52.179Z,11.30
2017-09-18T06:54:20.567Z,11.30
2017-09-18T06:56:48.959Z,11.30
2017-09-18T06:59:18.133Z,11.50
2017-09-18T07:01:46.527Z,11.50
2017-09-18T07:04:15.693Z,12.70
2017-09-18T07:06:44.102Z,12.70
2017-09-18T07:09:12.504Z,13.50
2017-09-18T07:11:40.889Z,13.80
2017-09-18T07:14:09.309Z,14.30
2017-09-18T07:16:37.708Z,15.00
2017-09-18T07:19:06.092Z,15.00
2017-09-18T07:21:35.270Z,14.20
2017-09-18T07:24:03.672Z,14.20
2017-09-18T07:26:32.820Z,13.60
2017-09-18T07:29:01.238Z,13.60
2017-09-18T07:31:29.676Z,13.00
2017-09-18T07:33:58.068Z,12.40
2017-09-18T07:36:26.479Z,12.20
2017-09-18T07:38:55.639Z,12.00
2017-09-18T07:41:24.038Z,12.00
2017-09-18T07:43:52.460Z,12.10
2017-09-18T07:46:20.853Z,12.00
2017-09-18T07:48:49.245Z,12.10
2017-09-18T07:51:18.597Z,11.90
2017-09-18T07:53:47.937Z,12.00
2017-09-18T07:56:16.599Z,12.00
2017-09-18T07:58:44.817Z,12.00
2017-09-18T08:01:13.204Z,12.00
2017-09-18T08:03:41.603Z,12.20
2017-09-18T08:06:10.800Z,12.40
2017-09-18T08:08:39.951Z,12.50
2017-09-18T08:11:08.343Z,12.50
2017-09-18T08:13:36.745Z,12.50
2017-09-18T08:16:05.137Z,12.40
2017-09-18T08:18:34.289Z,12.20
2017-09-18T08:21:02.697Z,12.10
2017-09-18T08:23:31.097Z,12.00
2017-09-18T08:26:00.253Z,11.70
2017-09-18T08:28:28.677Z,11.70
2017-09-18T08:30:57.153Z,11.60
2017-09-18T08:33:25.624Z,11.60
2017-09-18T08:35:54.552Z,11.60
2017-09-18T08:38:24.049Z,11.60
2017-09-18T08:40:54.220Z,11.60
2017-09-18T08:43:23.729Z,11.50
2017-09-18T08:45:54.929Z,12.00
2017-09-18T08:48:24.177Z,12.00
2017-09-18T08:50:52.499Z,12.50
2017-09-18T08:53:21.174Z,13.10
2017-09-18T08:55:49.577Z,14.10
2017-09-18T08:58:18.013Z,14.30
2017-09-18T09:00:46.401Z,14.20
2017-09-18T09:03:14.797Z,14.00
2017-09-18T09:05:43.024Z,13.70
2017-09-18T09:08:11.992Z,13.40
2017-09-18T09:10:39.694Z,13.40
2017-09-18T09:13:07.411Z,13.30
2017-09-18T09:15:35.808Z,13.10
2017-09-18T09:18:03.922Z,12.80
2017-09-18T09:20:33.131Z,12.40
2017-09-18T09:23:01.828Z,12.40
2017-09-18T09:25:31.494Z,12.20
2017-09-18T09:28:01.730Z,11.90
2017-09-18T09:30:31.595Z,11.80
2017-09-18T09:33:01.252Z,12.30
2017-09-18T09:35:29.676Z,12.30
2017-09-18T09:37:58.147Z,12.30
2017-09-18T09:40:26.546Z,12.00
2017-09-18T09:42:54.966Z,11.90
2017-09-18T09:45:23.347Z,11.80
2017-09-18T09:47:51.746Z,11.80
2017-09-18T09:50:19.959Z,11.70
2017-09-18T09:52:49.127Z,11.70
2017-09-18T09:55:17.521Z,11.60
2017-09-18T09:57:46.605Z,11.50
2017-09-18T10:00:14.992Z,11.80
2017-09-18T10:02:43.387Z,12.70
2017-09-18T10:05:12.573Z,13.60
2017-09-18T10:07:41.745Z,13.60
2017-09-18T10:10:10.275Z,13.50
2017-09-18T10:12:42.070Z,13.20
2017-09-18T10:15:10.529Z,13.10
2017-09-18T10:17:41.719Z,13.20
2017-09-18T10:20:10.851Z,13.60
2017-09-18T10:22:39.487Z,13.70
2017-09-18T10:25:08.335Z,13.70
2017-09-18T10:27:36.883Z,13.70
2017-09-18T10:30:05.863Z,14.10
2017-09-18T10:32:34.265Z,14.00
2017-09-18T10:35:03.433Z,15.20
2017-09-18T10:37:31.847Z,15.20
2017-09-18T10:40:01.029Z,15.60
2017-09-18T10:42:30.222Z,15.40
2017-09-18T10:44:58.609Z,15.40
2017-09-18T10:47:27.807Z,14.80
2017-09-18T10:49:56.977Z,14.70
2017-09-18T10:52:25.369Z,14.60
2017-09-18T10:54:53.769Z,14.80
2017-09-18T10:57:22.953Z,15.00
2017-09-18T10:59:52.105Z,15.10
2017-09-18T11:02:20.498Z,15.10
2017-09-18T11:04:49.517Z,15.10
2017-09-18T11:07:18.173Z,15.40
2017-09-18T11:09:47.590Z,15.20
2017-09-18T11:12:16.541Z,15.00
2017-09-18T11:14:44.928Z,15.30
2017-09-18T11:17:13.321Z,15.90
2017-09-18T11:19:41.732Z,17.20
2017-09-18T11:22:10.899Z,18.80
2017-09-18T11:24:39.292Z,18.70
2017-09-18T11:27:07.704Z,19.60
2017-09-18T11:29:36.102Z,21.00
2017-09-18T11:32:04.498Z,22.30
2017-09-18T11:34:32.909Z,21.40
2017-09-18T11:37:01.310Z,19.80
2017-09-18T11:39:29.707Z,18.40
2017-09-18T11:41:58.118Z,17.60
2017-09-18T11:44:26.668Z,17.20
2017-09-18T11:46:55.451Z,16.40
2017-09-18T11:49:25.070Z,16.10
2017-09-18T11:51:53.813Z,15.90
2017-09-18T11:54:22.041Z,16.10
2017-09-18T11:56:50.463Z,16.90
2017-09-18T11:59:19.621Z,20.70
2017-09-18T12:01:48.017Z,20.70
2017-09-18T12:04:16.529Z,21.70
2017-09-18T12:06:45.737Z,24.00
2017-09-18T12:09:14.124Z,23.90
2017-09-18T12:11:42.527Z,23.70
2017-09-18T12:14:10.921Z,22.50
2017-09-18T12:16:39.315Z,21.60
2017-09-18T12:19:09.241Z,18.30
2017-09-18T12:21:38.401Z,17.60
2017-09-18T12:24:06.797Z,17.60
2017-09-18T12:26:35.217Z,17.70
2017-09-18T12:29:03.816Z,18.10
2017-09-18T12:31:32.771Z,17.40
2017-09-18T12:34:01.427Z,17.30
2017-09-18T12:36:33.026Z,18.90
2017-09-18T12:39:02.209Z,18.90
2017-09-18T12:41:33.183Z,19.40
2017-09-18T12:44:02.966Z,19.40
2017-09-18T12:46:33.211Z,19.70
2017-09-18T12:49:03.440Z,22.30
2017-09-18T12:51:33.172Z,22.30
2017-09-18T12:54:02.852Z,22.70
2017-09-18T12:56:31.416Z,21.30
2017-09-18T12:58:59.480Z,19.90
2017-09-18T13:01:27.697Z,19.50
2017-09-18T13:03:56.094Z,18.80
2017-09-18T13:06:24.501Z,17.80
2017-09-18T13:08:53.701Z,16.50
2017-09-18T13:11:22.867Z,16.50
2017-09-18T13:13:51.385Z,16.50
2017-09-18T13:16:19.881Z,18.10
2017-09-18T13:18:48.277Z,18.70
2017-09-18T13:21:16.693Z,19.20
2017-09-18T13:23:45.114Z,18.70
2017-09-18T13:26:13.509Z,17.70
2017-09-18T13:28:41.765Z,16.70
2017-09-18T13:31:11.585Z,16.20
2017-09-18T13:33:41.119Z,15.90
2017-09-18T13:36:11.418Z,16.00
2017-09-18T13:38:40.533Z,16.00
2017-09-18T13:41:11.677Z,16.70
2017-09-18T13:43:41.288Z,16.70
2017-09-18T13:46:09.748Z,18.20
2017-09-18T13:48:38.959Z,21.00
2017-09-18T13:51:07.376Z,21.00
2017-09-18T13:53:36.544Z,22.30
2017-09-18T13:56:06.456Z,22.40
2017-09-18T13:58:34.876Z,22.40
2017-09-18T14:01:03.278Z,22.60
2017-09-18T14:03:31.749Z,23.10
2017-09-18T14:06:00.153Z,22.80
2017-09-18T14:08:30.221Z,23.10
2017-09-18T14:10:59.384Z,22.30
2017-09-18T14:13:27.805Z,22.30
2017-09-18T14:15:56.026Z,22.70
2017-09-18T14:18:24.471Z,23.20
2017-09-18T14:20:52.934Z,21.90
2017-09-18T14:23:22.098Z,19.30
2017-09-18T14:25:51.222Z,19.30
2017-09-18T14:28:20.049Z,19.80
2017-09-18T14:30:49.405Z,20.70
2017-09-18T14:33:18.362Z,21.70
2017-09-18T14:35:46.879Z,22.80
2017-09-18T14:38:15.861Z,21.60
2017-09-18T14:40:44.834Z,21.70
2017-09-18T14:43:13.237Z,21.70
2017-09-18T14:45:42.442Z,22.40
2017-09-18T14:48:11.639Z,22.60
2017-09-18T14:50:40.063Z,22.60
2017-09-18T14:53:08.497Z,23.00
2017-09-18T14:55:37.345Z,21.90
2017-09-18T14:58:05.781Z,20.60
2017-09-18T15:00:33.889Z,20.40
2017-09-18T15:03:02.299Z,20.30
2017-09-18T15:05:31.479Z,19.70
2017-09-18T15:07:59.889Z,19.70
2017-09-18T15:10:28.752Z,20.20
2017-09-18T15:12:57.918Z,20.20
2017-09-18T15:15:28.052Z,20.50
2017-09-18T15:17:57.581Z,19.30
2017-09-18T15:20:29.597Z,19.00
2017-09-18T15:23:00.211Z,18.90
2017-09-18T15:25:28.907Z,18.90
2017-09-18T15:27:59.315Z,19.00
2017-09-18T15:30:28.187Z,18.60
2017-09-18T15:32:56.409Z,18.50
2017-09-18T15:35:24.633Z,17.90
2017-09-18T15:37:53.795Z,16.60
2017-09-18T15:40:22.200Z,16.50
2017-09-18T15:42:51.381Z,16.10
2017-09-18T15:45:20.217Z,16.10
2017-09-18T15:47:48.609Z,16.10
2017-09-18T15:50:17.056Z,16.10
2017-09-18T15:52:45.474Z,15.80
2017-09-18T15:55:14.766Z,15.50
2017-09-18T15:57:43.176Z,15.10
2017-09-18T16:00:11.560Z,14.80
2017-09-18T16:02:39.961Z,14.70
2017-09-18T16:05:09.385Z,14.50
2017-09-18T16:07:37.988Z,14.50
2017-09-18T16:10:06.710Z,14.40
2017-09-18T16:12:36.150Z,14.30
2017-09-18T16:15:04.667Z,14.20
2017-09-18T16:17:33.091Z,14.20
2017-09-18T16:20:02.284Z,14.10
2017-09-18T16:22:31.442Z,14.00
2017-09-18T16:24:59.858Z,14.00
2017-09-18T16:27:29.039Z,13.90
2017-09-18T16:29:57.241Z,13.90
2017-09-18T16:32:25.649Z,13.80
2017-09-18T16:34:54.056Z,13.70
2017-09-18T16:37:22.453Z,13.60
2017-09-18T16:39:51.630Z,13.50
2017-09-18T16:42:20.045Z,13.40
2017-09-18T16:44:49.363Z,13.30
2017-09-18T16:47:17.821Z,13.30
2017-09-18T16:49:46.355Z,13.30
2017-09-18T16:52:15.491Z,13.30
2017-09-18T16:54:45.251Z,13.00
2017-09-18T16:57:14.325Z,13.00
2017-09-18T16:59:43.761Z,13.00
2017-09-18T17:02:14.356Z,12.80
2017-09-18T17:04:43.865Z,12.70
2017-09-18T17:07:12.474Z,12.60
2017-09-18T17:09:40.923Z,12.60
2017-09-18T17:12:09.344Z,12.50
2017-09-18T17:14:37.553Z,12.40
2017-09-18T17:17:05.954Z,12.30
2017-09-18T17:19:34.393Z,12.20
2017-09-18T17:22:03.697Z,12.10
2017-09-18T17:24:32.661Z,12.00
2017-09-18T17:27:01.069Z,12.00
2017-09-18T17:29:30.226Z,11.90
2017-09-18T17:31:58.627Z,11.80
2017-09-18T17:34:27.031Z,11.80
2017-09-18T17:36:55.513Z,11.80
2017-09-18T17:39:24.675Z,11.70
2017-09-18T17:41:54.344Z,11.70
2017-09-18T17:44:23.509Z,11.70
2017-09-18T17:46:53.781Z,11.60
2017-09-18T17:49:22.063Z,11.60
2017-09-18T17:51:50.826Z,11.50
2017-09-18T17:54:19.301Z,11.40
2017-09-18T17:56:47.886Z,11.30
2017-09-18T17:59:16.301Z,11.20
2017-09-18T18:01:44.713Z,11.20
2017-09-18T18:04:13.123Z,11.20
2017-09-18T18:06:41.524Z,11.10
2017-09-18T18:09:09.975Z,11.00
2017-09-18T18:11:38.384Z,11.00
2017-09-18T18:14:06.778Z,10.90
2017-09-18T18:16:35.172Z,10.90
2017-09-18T18:19:04.360Z,10.70
2017-09-18T18:21:33.528Z,10.70
2017-09-18T18:24:01.928Z,10.70
2017-09-18T18:26:30.370Z,10.70
2017-09-18T18:28:58.875Z,10.70
2017-09-18T18:31:28.043Z,10.60
2017-09-18T18:33:57.698Z,10.60
2017-09-18T18:36:27.716Z,10.50
2017-09-18T18:38:56.389Z,10.40
2017-09-18T18:41:25.405Z,10.30
2017-09-18T18:43:54.622Z,10.20
2017-09-18T18:46:23.045Z,10.20
2017-09-18T18:48:51.492Z,10.20
2017-09-18T18:51:19.899Z,10.20
2017-09-18T18:53:48.304Z,10.10
2017-09-18T18:56:17.477Z,10.10
2017-09-18T18:58:45.882Z,10.10
2017-09-18T19:01:15.056Z,10.10
2017-09-18T19:03:43.321Z,10.10
2017-09-18T19:06:11.541Z,10.00
2017-09-18T19:08:39.753Z,9.90
2017-09-18T19:11:08.162Z,9.90
2017-09-18T19:13:37.711Z,9.80
2017-09-18T19:16:07.021Z,9.80
2017-09-18T19:18:36.726Z,9.80
2017-09-18T19:21:07.686Z,9.80
2017-09-18T19:23:37.512Z,9.80
2017-09-18T19:26:06.125Z,9.70
2017-09-18T19:28:34.583Z,9.70
2017-09-18T19:31:03.218Z,9.80
2017-09-18T19:33:31.698Z,9.70
2017-09-18T19:36:00.087Z,9.60
2017-09-18T19:38:28.321Z,9.60
2017-09-18T19:40:57.480Z,9.50
2017-09-18T19:43:25.869Z,9.40
2017-09-18T19:45:54.281Z,9.40
2017-09-18T19:48:23.449Z,9.20
2017-09-18T19:50:52.609Z,9.20
2017-09-18T19:53:21.010Z,9.20
2017-09-18T19:55:49.402Z,9.20
2017-09-18T19:58:17.797Z,9.20
2017-09-18T20:00:46.641Z,9.00
2017-09-18T20:03:15.235Z,9.00
2017-09-18T20:05:44.029Z,8.90
2017-09-18T20:08:13.519Z,8.90
2017-09-18T20:10:42.173Z,8.90
2017-09-18T20:13:10.751Z,8.90
2017-09-18T20:15:39.173Z,8.90
2017-09-18T20:18:07.374Z,8.90
2017-09-18T20:20:36.336Z,8.80
2017-09-18T20:23:04.761Z,8.80
2017-09-18T20:25:33.150Z,8.80
2017-09-18T20:28:01.542Z,8.80
2017-09-18T20:30:29.948Z,8.80
2017-09-18T20:32:58.354Z,8.80
2017-09-18T20:35:27.507Z,8.80
2017-09-18T20:37:55.915Z,8.70
2017-09-18T20:40:24.305Z,8.70
2017-09-18T20:42:53.472Z,8.70
2017-09-18T20:45:21.994Z,8.60
2017-09-18T20:47:51.558Z,8.50
2017-09-18T20:50:20.989Z,8.50
2017-09-18T20:52:51.363Z,8.50
2017-09-18T20:55:21.700Z,8.40
2017-09-18T20:57:51.636Z,8.50
2017-09-18T21:00:20.784Z,8.50
2017-09-18T21:02:49.462Z,8.60
2017-09-18T21:05:17.884Z,8.60
2017-09-18T21:07:46.300Z,8.50
2017-09-18T21:10:15.500Z,8.40
2017-09-18T21:12:44.705Z,8.40
2017-09-18T21:15:13.100Z,8.30
2017-09-18T21:17:41.492Z,8.40
2017-09-18T21:20:09.699Z,8.40
2017-09-18T21:22:38.085Z,8.30
2017-09-18T21:25:06.474Z,8.50
2017-09-18T21:27:34.881Z,8.50
2017-09-18T21:30:03.305Z,8.60
2017-09-18T21:32:31.701Z,8.60
2017-09-18T21:35:00.505Z,8.70
2017-09-18T21:37:28.799Z,8.70
2017-09-18T21:39:57.963Z,8.70
2017-09-18T21:42:29.781Z,8.80
2017-09-18T21:44:58.638Z,8.80
2017-09-18T21:47:27.866Z,8.80
2017-09-18T21:49:57.364Z,8.90
2017-09-18T21:52:26.721Z,8.90
2017-09-18T21:54:55.877Z,9.00
2017-09-18T21:57:24.280Z,9.00
2017-09-18T21:59:52.669Z,9.00
2017-09-18T22:02:21.831Z,9.00
2017-09-18T22:04:50.233Z,9.00
2017-09-18T22:07:19.393Z,9.00
2017-09-18T22:09:47.829Z,9.10
2017-09-18T22:12:16.241Z,9.00
2017-09-18T22:14:44.628Z,9.00
2017-09-18T22:17:13.039Z,9.00
2017-09-18T22:19:42.208Z,9.00
2017-09-18T22:22:10.617Z,9.00
2017-09-18T22:24:39.244Z,9.10
2017-09-18T22:27:08.584Z,9.10
2017-09-18T22:29:36.986Z,9.10
2017-09-18T22:32:07.182Z,9.20
2017-09-18T22:34:37.477Z,9.20
2017-09-18T22:37:07.181Z,9.20
2017-09-18T22:39:36.503Z,9.20
2017-09-18T22:42:05.971Z,9.20
2017-09-18T22:44:35.206Z,9.10
2017-09-18T22:47:03.592Z,9.10
2017-09-18T22:49:32.005Z,9.10
2017-09-18T22:52:00.410Z,9.10
2017-09-18T22:54:28.798Z,9.00
2017-09-18T22:56:57.204Z,9.00
2017-09-18T22:59:25.592Z,9.10
2017-09-18T23:01:53.792Z,9.00
2017-09-18T23:04:22.205Z,9.10
2017-09-18T23:06:50.592Z,9.10
2017-09-18T23:09:18.982Z,9.00
2017-09-18T23:11:47.201Z,9.00
2017-09-18T23:14:16.951Z,9.00
2017-09-18T23:16:46.374Z,9.00
2017-09-18T23:19:15.259Z,9.00
2017-09-18T23:21:44.661Z,9.00
2017-09-18T23:24:13.138Z,9.00
2017-09-18T23:26:42.356Z,9.10
2017-09-18T23:29:11.525Z,9.20
2017-09-18T23:31:39.915Z,9.10
2017-09-18T23:34:08.331Z,9.20
2017-09-18T23:36:36.725Z,9.20
2017-09-18T23:39:04.227Z,9.20
2017-09-18T23:41:32.625Z,9.20
2017-09-18T23:44:01.783Z,9.10
2017-09-18T23:46:30.169Z,9.10
2017-09-18T23:48:58.578Z,9.10
2017-09-18T23:51:27.729Z,9.10
2017-09-18T23:53:56.123Z,9.10
2017-09-18T23:56:24.533Z,9.20
2017-09-18T23:58:52.941Z,9.10
